createdAt,value
2023-12-03T00:00:13.451Z,19.93
2023-12-03T00:02:43.184Z,21.73
2023-12-03T00:05:12.293Z,20.63
2023-12-03T00:07:40.345Z,19.13
2023-12-03T00:10:09.075Z,20.83
2023-12-03T00:12:39.537Z,21.63
2023-12-03T00:15:09.860Z,20.47
2023-12-03T00:17:37.694Z,21.27
2023-12-03T00:20:06.638Z,20.43
2023-12-03T00:22:34.335Z,20.03
2023-12-03T00:25:01.908Z,18.93
2023-12-03T00:27:29.481Z,18.67
2023-12-03T00:29:58.421Z,18.90
2023-12-03T00:32:27.431Z,20.10
2023-12-03T00:34:55.037Z,20.67
2023-12-03T00:37:22.661Z,20.80
2023-12-03T00:39:51.242Z,20.30
2023-12-03T00:42:18.960Z,21.90
2023-12-03T00:44:47.397Z,19.03
2023-12-03T00:47:15.053Z,20.80
2023-12-03T00:49:45.568Z,18.43
2023-12-03T00:52:13.473Z,19.63
2023-12-03T00:54:41.151Z,20.97
2023-12-03T00:57:08.863Z,20.13
2023-12-03T00:59:36.636Z,22.80
2023-12-03T01:02:04.388Z,20.40
2023-12-03T01:04:32.052Z,16.13
2023-12-03T01:07:01.014Z,20.10
2023-12-03T01:09:31.706Z,21.80
2023-12-03T01:11:59.605Z,18.30
2023-12-03T01:14:27.188Z,19.37
2023-12-03T01:16:54.763Z,18.30
2023-12-03T01:19:23.053Z,18.40
2023-12-03T01:21:51.489Z,20.93
2023-12-03T01:24:20.570Z,20.67
2023-12-03T01:26:48.135Z,19.73
2023-12-03T01:29:15.764Z,19.60
2023-12-03T01:31:43.331Z,20.13
2023-12-03T01:34:10.995Z,19.67
2023-12-03T01:36:38.654Z,20.17
2023-12-03T01:39:06.659Z,20.07
2023-12-03T01:41:36.208Z,18.17
2023-12-03T01:44:03.943Z,19.33
2023-12-03T01:46:31.558Z,19.43
2023-12-03T01:48:59.226Z,20.13
2023-12-03T01:51:27.465Z,19.33
2023-12-03T01:53:56.803Z,20.57
2023-12-03T01:56:24.387Z,20.43
2023-12-03T01:58:53.913Z,19.83
2023-12-03T02:01:21.472Z,20.43
2023-12-03T02:03:49.343Z,18.23
2023-12-03T02:06:17.205Z,20.73
2023-12-03T02:08:44.980Z,18.70
2023-12-03T02:11:13.084Z,19.40
2023-12-03T02:13:41.170Z,21.07
2023-12-03T02:16:11.212Z,21.80
2023-12-03T02:18:40.373Z,20.30
2023-12-03T02:21:09.927Z,19.60
2023-12-03T02:23:38.876Z,19.10
2023-12-03T02:26:07.861Z,19.23
2023-12-03T02:28:35.464Z,18.03
2023-12-03T02:31:03.242Z,19.40
2023-12-03T02:33:30.879Z,21.57
2023-12-03T02:35:58.556Z,18.40
2023-12-03T02:38:26.169Z,20.37
2023-12-03T02:40:56.052Z,21.40
2023-12-03T02:43:23.649Z,21.17
2023-12-03T02:45:51.257Z,19.07
2023-12-03T02:48:19.053Z,22.73
2023-12-03T02:50:46.699Z,17.90
2023-12-03T02:53:14.287Z,17.60
2023-12-03T02:55:41.860Z,18.07
2023-12-03T02:58:10.845Z,21.07
2023-12-03T03:00:38.534Z,19.80
2023-12-03T03:03:06.139Z,19.13
2023-12-03T03:05:33.750Z,20.20
2023-12-03T03:08:01.352Z,18.63
2023-12-03T03:10:29.016Z,18.93
2023-12-03T03:12:56.602Z,18.57
2023-12-03T03:15:25.593Z,18.17
2023-12-03T03:17:53.296Z,18.27
2023-12-03T03:20:22.893Z,18.53
2023-12-03T03:22:51.621Z,20.30
2023-12-03T03:25:19.526Z,19.90
2023-12-03T03:27:47.249Z,18.53
2023-12-03T03:30:15.210Z,19.70
2023-12-03T03:32:44.214Z,18.90
2023-12-03T03:35:11.836Z,18.10
2023-12-03T03:37:39.409Z,19.63
2023-12-03T03:40:08.599Z,19.97
2023-12-03T03:42:36.244Z,19.90
2023-12-03T03:45:04.104Z,20.27
2023-12-03T03:47:32.255Z,17.93
2023-12-03T03:50:02.018Z,18.57
2023-12-03T03:52:29.638Z,20.80
2023-12-03T03:54:57.237Z,20.90
2023-12-03T03:57:24.864Z,20.60
2023-12-03T03:59:52.579Z,21.97
2023-12-03T04:02:20.191Z,19.60
2023-12-03T04:04:48.377Z,20.37
2023-12-03T04:07:17.540Z,22.20
2023-12-03T04:09:46.678Z,22.27
2023-12-03T04:12:14.307Z,21.30
2023-12-03T04:14:42.904Z,21.40
2023-12-03T04:17:10.599Z,20.93
2023-12-03T04:19:38.416Z,20.97
2023-12-03T04:22:06.185Z,21.90
2023-12-03T04:24:35.247Z,23.23
2023-12-03T04:27:02.886Z,20.83
2023-12-03T04:29:30.470Z,20.87
2023-12-03T04:31:58.041Z,22.40
2023-12-03T04:34:25.707Z,21.03
2023-12-03T04:36:54.618Z,21.97
2023-12-03T04:39:22.226Z,21.83
2023-12-03T04:41:51.306Z,22.73
2023-12-03T04:44:18.914Z,21.43
2023-12-03T04:46:46.490Z,21.70
2023-12-03T04:49:14.104Z,20.83
2023-12-03T04:51:41.943Z,24.63
2023-12-03T04:54:09.620Z,22.63
2023-12-03T04:56:37.211Z,21.53
2023-12-03T04:59:07.824Z,22.13
2023-12-03T05:01:35.493Z,20.87
2023-12-03T05:04:03.182Z,21.70
2023-12-03T05:06:30.969Z,22.10
2023-12-03T05:08:58.712Z,21.90
2023-12-03T05:11:26.452Z,19.57
2023-12-03T05:13:54.088Z,19.97
2023-12-03T05:16:23.023Z,20.07
2023-12-03T05:18:50.670Z,21.60
2023-12-03T05:21:18.324Z,23.07
2023-12-03T05:23:45.884Z,21.27
2023-12-03T05:26:13.474Z,21.67
2023-12-03T05:28:41.051Z,22.10
2023-12-03T05:31:09.010Z,22.30
2023-12-03T05:33:38.093Z,21.60
2023-12-03T05:36:06.593Z,22.07
2023-12-03T05:38:34.165Z,22.90
2023-12-03T05:41:01.780Z,22.10
2023-12-03T05:43:29.324Z,22.90
2023-12-03T05:45:56.942Z,25.27
2023-12-03T05:48:24.628Z,26.37
2023-12-03T05:50:53.649Z,24.77
2023-12-03T05:53:21.252Z,27.27
2023-12-03T05:55:48.857Z,25.73
2023-12-03T05:58:16.473Z,24.50
2023-12-03T06:00:44.069Z,28.03
2023-12-03T06:03:12.273Z,29.23
2023-12-03T06:05:40.178Z,28.30
2023-12-03T06:08:09.138Z,27.70
2023-12-03T06:10:36.697Z,27.73
2023-12-03T06:13:04.285Z,28.60
2023-12-03T06:15:31.877Z,28.67
2023-12-03T06:17:59.499Z,28.67
2023-12-03T06:20:27.086Z,29.60
2023-12-03T06:22:54.711Z,28.73
2023-12-03T06:25:23.653Z,31.30
2023-12-03T06:27:51.279Z,26.43
2023-12-03T06:30:19.586Z,27.90
2023-12-03T06:32:47.295Z,28.77
2023-12-03T06:35:16.846Z,31.03
2023-12-03T06:37:44.501Z,30.53
2023-12-03T06:40:12.770Z,30.17
2023-12-03T06:42:41.826Z,31.03
2023-12-03T06:45:10.670Z,30.57
2023-12-03T06:47:38.288Z,31.27
2023-12-03T06:50:06.968Z,30.97
2023-12-03T06:52:34.581Z,29.00
2023-12-03T06:55:02.127Z,31.40
2023-12-03T06:57:29.822Z,28.23
2023-12-03T06:59:58.750Z,32.03
2023-12-03T07:02:26.978Z,33.03
2023-12-03T07:04:54.591Z,33.23
2023-12-03T07:07:22.781Z,31.33
2023-12-03T07:09:50.514Z,34.00
2023-12-03T07:12:18.689Z,34.17
2023-12-03T07:14:46.312Z,35.03
2023-12-03T07:17:15.321Z,31.47
2023-12-03T07:19:44.545Z,33.17
2023-12-03T07:22:12.832Z,36.23
2023-12-03T07:24:40.796Z,34.83
2023-12-03T07:27:08.606Z,32.27
2023-12-03T07:29:36.337Z,32.60
2023-12-03T07:32:04.496Z,32.53
2023-12-03T07:34:33.453Z,33.30
2023-12-03T07:37:01.038Z,35.40
2023-12-03T07:39:28.651Z,35.57
2023-12-03T07:41:56.565Z,35.77
2023-12-03T07:44:24.735Z,32.80
2023-12-03T07:46:54.386Z,33.50
2023-12-03T07:49:22.013Z,33.27
2023-12-03T07:51:51.095Z,32.13
2023-12-03T07:54:18.952Z,33.43
2023-12-03T07:56:46.705Z,32.60
2023-12-03T07:59:14.265Z,33.57
2023-12-03T08:01:41.903Z,31.03
2023-12-03T08:04:09.611Z,32.97
2023-12-03T08:06:37.353Z,32.57
2023-12-03T08:09:06.487Z,33.97
2023-12-03T08:11:34.459Z,30.57
2023-12-03T08:14:02.038Z,31.67
2023-12-03T08:16:29.626Z,30.57
2023-12-03T08:18:57.343Z,30.40
2023-12-03T08:21:25.030Z,32.80
2023-12-03T08:23:52.588Z,30.63
2023-12-03T08:26:21.580Z,32.37
2023-12-03T08:28:49.193Z,26.53
2023-12-03T08:31:18.309Z,25.77
2023-12-03T08:33:46.504Z,27.20
2023-12-03T08:36:19.389Z,26.47
2023-12-03T08:38:47.085Z,26.63
2023-12-03T08:41:14.657Z,24.87
2023-12-03T08:43:43.568Z,27.33
2023-12-03T08:46:11.931Z,23.17
2023-12-03T08:48:39.556Z,26.10
2023-12-03T08:51:07.901Z,22.40
2023-12-03T08:53:35.515Z,24.37
2023-12-03T08:56:03.308Z,21.50
2023-12-03T08:58:30.906Z,21.70
2023-12-03T09:00:59.868Z,22.27
2023-12-03T09:03:27.590Z,20.53
2023-12-03T09:05:56.465Z,21.47
2023-12-03T09:08:24.085Z,20.80
2023-12-03T09:10:51.660Z,21.17
2023-12-03T09:13:19.388Z,20.63
2023-12-03T09:15:47.187Z,21.00
2023-12-03T09:18:16.690Z,21.53
2023-12-03T09:20:44.631Z,19.97
2023-12-03T09:23:12.255Z,20.37
2023-12-03T09:25:39.876Z,19.77
2023-12-03T09:28:07.493Z,19.00
2023-12-03T09:30:35.117Z,19.20
2023-12-03T09:33:02.783Z,19.50
2023-12-03T09:35:33.298Z,21.73
2023-12-03T09:38:00.914Z,19.80
2023-12-03T09:40:28.579Z,19.10
2023-12-03T09:42:58.134Z,19.30
2023-12-03T09:45:27.505Z,19.57
2023-12-03T09:48:01.996Z,20.47
2023-12-03T09:50:32.253Z,20.07
2023-12-03T09:53:01.585Z,19.47
2023-12-03T09:55:29.863Z,22.07
2023-12-03T09:57:57.878Z,19.17
2023-12-03T10:00:25.793Z,18.97
2023-12-03T10:02:55.135Z,18.10
2023-12-03T10:05:22.924Z,18.10
2023-12-03T10:07:52.110Z,16.93
2023-12-03T10:10:22.189Z,19.20
2023-12-03T10:12:51.677Z,18.23
2023-12-03T10:15:19.347Z,16.73
2023-12-03T10:17:46.985Z,18.40
2023-12-03T10:20:27.471Z,17.43
2023-12-03T10:22:58.379Z,17.20
2023-12-03T10:25:30.400Z,16.87
2023-12-03T10:28:00.081Z,17.57
2023-12-03T10:30:27.898Z,17.63
2023-12-03T10:32:56.322Z,16.27
2023-12-03T10:35:24.779Z,16.83
2023-12-03T10:37:52.762Z,15.57
2023-12-03T10:40:22.065Z,17.27
2023-12-03T10:42:49.662Z,16.77
2023-12-03T10:45:17.884Z,16.43
2023-12-03T10:47:46.027Z,15.70
2023-12-03T10:50:15.696Z,18.10
2023-12-03T10:52:43.741Z,15.43
2023-12-03T10:55:11.520Z,15.90
2023-12-03T10:57:50.431Z,16.73
2023-12-03T11:00:20.022Z,16.13
2023-12-03T11:02:50.900Z,16.47
2023-12-03T11:05:27.429Z,16.37
2023-12-03T11:07:56.668Z,15.10
2023-12-03T11:10:24.477Z,15.63
2023-12-03T11:12:53.736Z,16.90
2023-12-03T11:15:22.995Z,16.40
2023-12-03T11:17:53.047Z,16.73
2023-12-03T11:20:25.406Z,16.77
2023-12-03T11:23:10.309Z,16.20
2023-12-03T11:25:47.112Z,16.93
2023-12-03T11:28:16.142Z,16.77
2023-12-03T11:30:44.203Z,17.43
2023-12-03T11:33:15.033Z,15.80
2023-12-03T11:35:44.226Z,17.40
2023-12-03T11:38:16.742Z,17.33
2023-12-03T11:40:44.389Z,17.63
2023-12-03T11:43:26.412Z,16.27
2023-12-03T11:45:54.893Z,17.93
2023-12-03T11:48:25.150Z,17.30
2023-12-03T11:50:52.926Z,16.77
2023-12-03T11:53:35.125Z,17.50
2023-12-03T11:56:03.485Z,17.63
2023-12-03T11:58:32.461Z,18.47
2023-12-03T12:01:00.081Z,18.00
2023-12-03T12:03:29.315Z,19.23
2023-12-03T12:05:57.201Z,18.73
2023-12-03T12:08:25.647Z,18.97
2023-12-03T12:10:55.365Z,19.20
2023-12-03T12:13:24.525Z,18.17
2023-12-03T12:15:56.419Z,19.90
2023-12-03T12:18:24.827Z,17.87
2023-12-03T12:20:52.703Z,18.40
2023-12-03T12:23:20.337Z,18.23
2023-12-03T12:25:48.273Z,17.40
2023-12-03T12:28:15.961Z,18.67
2023-12-03T12:30:43.690Z,18.07
2023-12-03T12:33:12.729Z,17.37
2023-12-03T12:35:40.479Z,16.83
2023-12-03T12:38:09.235Z,17.97
2023-12-03T12:40:40.294Z,17.90
2023-12-03T12:43:09.562Z,18.20
2023-12-03T12:45:39.431Z,18.90
2023-12-03T12:48:25.612Z,17.67
2023-12-03T12:50:53.840Z,17.33
2023-12-03T12:53:21.917Z,18.70
2023-12-03T12:55:51.483Z,17.07
2023-12-03T12:58:19.392Z,19.43
2023-12-03T13:00:47.020Z,17.80
2023-12-03T13:03:14.963Z,19.33
2023-12-03T13:05:44.422Z,19.70
2023-12-03T13:08:12.966Z,18.07
2023-12-03T13:10:40.599Z,18.60
2023-12-03T13:13:08.654Z,18.47
2023-12-03T13:15:37.154Z,18.37
2023-12-03T13:18:12.765Z,18.90
2023-12-03T13:20:48.629Z,19.07
2023-12-03T13:23:17.847Z,19.93
2023-12-03T13:25:45.823Z,21.93
2023-12-03T13:28:13.414Z,19.83
2023-12-03T13:30:41.548Z,20.67
2023-12-03T13:33:09.190Z,18.83
2023-12-03T13:35:36.819Z,17.23
2023-12-03T13:38:05.751Z,18.07
2023-12-03T13:40:33.412Z,18.70
2023-12-03T13:43:01.024Z,18.63
2023-12-03T13:45:28.743Z,21.60
2023-12-03T13:47:57.011Z,19.43
2023-12-03T13:50:24.695Z,20.13
2023-12-03T13:52:52.837Z,19.77
2023-12-03T13:55:21.807Z,18.33
2023-12-03T13:57:49.379Z,20.50
2023-12-03T14:00:18.043Z,20.13
2023-12-03T14:02:47.740Z,19.07
2023-12-03T14:05:21.395Z,19.37
2023-12-03T14:07:53.825Z,19.37
2023-12-03T14:10:24.457Z,20.87
2023-12-03T14:12:52.241Z,19.73
2023-12-03T14:15:19.914Z,19.27
2023-12-03T14:17:47.590Z,18.90
2023-12-03T14:20:15.272Z,20.30
2023-12-03T14:22:42.905Z,18.80
2023-12-03T14:25:11.114Z,19.57
2023-12-03T14:27:41.458Z,19.43
2023-12-03T14:30:11.444Z,19.27
2023-12-03T14:32:39.295Z,19.00
2023-12-03T14:35:09.413Z,20.30
2023-12-03T14:37:37.001Z,21.50
2023-12-03T14:40:05.307Z,19.97
2023-12-03T14:42:32.961Z,19.77
2023-12-03T14:45:02.149Z,20.37
2023-12-03T14:47:29.804Z,20.83
2023-12-03T14:49:57.452Z,21.77
2023-12-03T14:52:25.413Z,20.53
2023-12-03T14:54:53.108Z,20.60
2023-12-03T14:57:20.726Z,21.43
2023-12-03T14:59:48.388Z,24.03
2023-12-03T15:02:17.333Z,23.60
2023-12-03T15:04:45.107Z,22.77
2023-12-03T15:07:12.690Z,21.97
2023-12-03T15:09:40.597Z,23.90
2023-12-03T15:12:08.678Z,25.13
2023-12-03T15:14:36.305Z,24.73
2023-12-03T15:17:04.464Z,22.23
2023-12-03T15:19:34.475Z,19.90
2023-12-03T15:22:02.369Z,22.47
2023-12-03T15:24:30.024Z,22.47
2023-12-03T15:26:57.847Z,21.37
2023-12-03T15:29:25.609Z,19.83
2023-12-03T15:31:53.249Z,22.53
2023-12-03T15:34:20.940Z,20.37
2023-12-03T15:36:50.054Z,21.43
2023-12-03T15:39:17.646Z,18.53
2023-12-03T15:41:45.834Z,21.60
2023-12-03T15:44:13.407Z,22.00
2023-12-03T15:46:41.151Z,24.90
2023-12-03T15:49:13.504Z,22.30
2023-12-03T15:51:47.120Z,21.90
2023-12-03T15:54:18.022Z,25.13
2023-12-03T15:56:46.193Z,21.67
2023-12-03T15:59:13.776Z,22.37
2023-12-03T16:01:41.431Z,21.53
2023-12-03T16:04:09.108Z,22.90
2023-12-03T16:06:37.283Z,23.50
2023-12-03T16:09:05.104Z,22.53
2023-12-03T16:11:34.050Z,23.93
2023-12-03T16:14:01.711Z,25.20
2023-12-03T16:16:29.449Z,21.97
2023-12-03T16:18:57.227Z,25.73
2023-12-03T16:21:24.995Z,22.53
2023-12-03T16:23:52.609Z,23.03
2023-12-03T16:26:20.185Z,23.13
2023-12-03T16:28:49.093Z,24.03
2023-12-03T16:31:16.693Z,24.70
2023-12-03T16:33:45.939Z,23.73
2023-12-03T16:36:13.681Z,23.53
2023-12-03T16:38:41.267Z,24.13
2023-12-03T16:41:11.726Z,24.53
2023-12-03T16:43:39.692Z,22.80
2023-12-03T16:46:10.749Z,23.27
2023-12-03T16:48:38.513Z,20.97
2023-12-03T16:51:07.047Z,22.97
2023-12-03T16:53:34.626Z,22.77
2023-12-03T16:56:02.239Z,21.27
2023-12-03T16:58:29.794Z,23.03
2023-12-03T17:00:57.377Z,22.27
2023-12-03T17:03:26.348Z,21.93
2023-12-03T17:05:55.528Z,20.40
2023-12-03T17:08:23.181Z,22.70
2023-12-03T17:10:50.797Z,25.93
2023-12-03T17:13:20.003Z,22.70
2023-12-03T17:15:49.307Z,25.07
2023-12-03T17:18:17.284Z,23.90
2023-12-03T17:20:46.723Z,23.50
2023-12-03T17:23:14.554Z,22.93
2023-12-03T17:25:42.149Z,23.80
2023-12-03T17:28:09.747Z,22.27
2023-12-03T17:30:37.474Z,23.57
2023-12-03T17:33:05.234Z,23.53
2023-12-03T17:35:33.012Z,24.07
2023-12-03T17:38:02.913Z,23.67
2023-12-03T17:40:30.544Z,24.63
2023-12-03T17:42:58.189Z,24.23
2023-12-03T17:45:27.361Z,24.73
2023-12-03T17:47:55.363Z,24.73
2023-12-03T17:50:23.001Z,24.37
2023-12-03T17:52:50.564Z,23.87
2023-12-03T17:55:20.397Z,27.87
2023-12-03T17:57:48.097Z,23.30
2023-12-03T18:00:16.730Z,23.73
2023-12-03T18:02:44.385Z,29.37
2023-12-03T18:05:12.037Z,25.23
2023-12-03T18:07:39.764Z,25.50
2023-12-03T18:10:11.060Z,25.87
2023-12-03T18:12:40.104Z,26.57
2023-12-03T18:15:08.805Z,24.93
2023-12-03T18:17:37.269Z,23.73
2023-12-03T18:20:05.630Z,24.30
2023-12-03T18:22:33.730Z,24.53
2023-12-03T18:25:02.090Z,25.23
2023-12-03T18:27:30.251Z,26.50
2023-12-03T18:30:00.335Z,26.33
2023-12-03T18:32:30.480Z,26.10
2023-12-03T18:34:58.435Z,26.47
2023-12-03T18:37:26.008Z,29.87
2023-12-03T18:39:53.628Z,28.90
2023-12-03T18:42:21.290Z,28.50
2023-12-03T18:44:49.240Z,29.17
2023-12-03T18:47:19.013Z,29.73
2023-12-03T18:49:46.722Z,31.03
2023-12-03T18:52:14.317Z,28.53
2023-12-03T18:54:43.515Z,30.23
2023-12-03T18:57:14.032Z,28.83
2023-12-03T18:59:44.069Z,26.97
2023-12-03T19:02:11.872Z,26.33
2023-12-03T19:04:40.845Z,28.67
2023-12-03T19:07:08.481Z,30.20
2023-12-03T19:09:36.514Z,28.00
2023-12-03T19:12:04.544Z,26.20
2023-12-03T19:14:32.109Z,26.97
2023-12-03T19:16:59.850Z,30.73
2023-12-03T19:19:27.533Z,27.00
2023-12-03T19:21:56.584Z,26.17
2023-12-03T19:24:24.302Z,28.23
2023-12-03T19:26:52.822Z,23.53
2023-12-03T19:29:20.423Z,29.20
2023-12-03T19:31:49.554Z,25.90
2023-12-03T19:34:17.338Z,25.27
2023-12-03T19:36:45.006Z,25.70
2023-12-03T19:39:14.037Z,27.37
2023-12-03T19:41:41.724Z,25.33
2023-12-03T19:44:09.316Z,22.97
2023-12-03T19:46:37.027Z,25.27
2023-12-03T19:49:04.801Z,24.23
2023-12-03T19:51:32.517Z,25.27
2023-12-03T19:54:00.255Z,26.30
2023-12-03T19:56:29.407Z,26.13
2023-12-03T19:59:00.369Z,24.37
2023-12-03T20:01:27.990Z,23.77
2023-12-03T20:03:55.670Z,25.20
2023-12-03T20:06:23.325Z,23.80
2023-12-03T20:08:50.898Z,25.27
2023-12-03T20:11:18.514Z,26.80
2023-12-03T20:13:47.546Z,23.80
2023-12-03T20:16:15.306Z,23.93
2023-12-03T20:18:42.989Z,25.60
2023-12-03T20:21:10.857Z,22.50
2023-12-03T20:23:38.437Z,24.10
2023-12-03T20:26:08.158Z,23.33
2023-12-03T20:28:37.998Z,22.10
2023-12-03T20:31:08.962Z,20.33
2023-12-03T20:33:36.808Z,24.77
2023-12-03T20:36:08.567Z,22.37
2023-12-03T20:38:36.303Z,22.63
2023-12-03T20:41:03.894Z,20.47
2023-12-03T20:43:31.614Z,21.57
2023-12-03T20:45:59.565Z,20.37
2023-12-03T20:48:28.686Z,21.47
2023-12-03T20:50:56.323Z,20.90
2023-12-03T20:53:23.892Z,21.73
2023-12-03T20:55:51.522Z,21.73
2023-12-03T20:58:19.125Z,23.23
2023-12-03T21:00:46.790Z,19.53
2023-12-03T21:03:14.514Z,23.77
2023-12-03T21:05:43.534Z,24.33
2023-12-03T21:08:11.156Z,24.93
2023-12-03T21:10:38.727Z,21.63
2023-12-03T21:13:06.364Z,22.53
2023-12-03T21:15:33.986Z,21.73
2023-12-03T21:18:01.839Z,21.43
2023-12-03T21:20:29.488Z,19.97
2023-12-03T21:22:58.938Z,20.37
2023-12-03T21:25:27.419Z,21.53
2023-12-03T21:27:55.937Z,22.83
2023-12-03T21:30:23.564Z,21.87
2023-12-03T21:32:51.216Z,22.80
2023-12-03T21:35:18.868Z,21.40
2023-12-03T21:37:49.349Z,19.87
2023-12-03T21:40:18.772Z,20.60
2023-12-03T21:42:46.496Z,21.80
2023-12-03T21:45:14.196Z,20.10
2023-12-03T21:47:41.828Z,20.73
2023-12-03T21:50:10.609Z,19.03
2023-12-03T21:52:38.281Z,20.67
2023-12-03T21:55:07.081Z,20.73
2023-12-03T21:57:36.113Z,19.70
2023-12-03T22:00:05.913Z,18.77
2023-12-03T22:02:33.607Z,18.50
2023-12-03T22:05:01.232Z,17.33
2023-12-03T22:07:28.941Z,19.53
2023-12-03T22:09:57.460Z,17.87
2023-12-03T22:12:25.054Z,19.70
2023-12-03T22:14:54.022Z,21.47
2023-12-03T22:17:21.721Z,18.87
2023-12-03T22:19:49.399Z,20.10
2023-12-03T22:22:17.077Z,18.30
2023-12-03T22:24:44.697Z,17.87
2023-12-03T22:27:12.305Z,17.43
2023-12-03T22:29:48.038Z,18.67
2023-12-03T22:32:21.088Z,19.83
2023-12-03T22:34:48.689Z,20.57
2023-12-03T22:37:16.433Z,17.87
2023-12-03T22:39:44.125Z,19.90
2023-12-03T22:42:11.723Z,19.57
2023-12-03T22:44:39.282Z,20.63
2023-12-03T22:47:07.154Z,17.43
2023-12-03T22:49:36.295Z,18.57
2023-12-03T22:52:04.770Z,20.10
2023-12-03T22:54:32.521Z,18.27
2023-12-03T22:57:00.095Z,18.17
2023-12-03T22:59:27.649Z,19.87
2023-12-03T23:01:55.289Z,17.53
2023-12-03T23:04:22.980Z,17.73
2023-12-03T23:06:52.000Z,19.20
2023-12-03T23:09:19.598Z,19.10
2023-12-03T23:11:47.209Z,17.53
2023-12-03T23:14:14.912Z,17.43
2023-12-03T23:16:43.010Z,18.77
2023-12-03T23:19:10.990Z,19.17
2023-12-03T23:21:38.969Z,18.20
2023-12-03T23:24:09.452Z,19.57
2023-12-03T23:26:41.563Z,15.93
2023-12-03T23:29:09.553Z,17.93
2023-12-03T23:31:37.410Z,17.03
2023-12-03T23:34:05.327Z,19.83
2023-12-03T23:36:33.118Z,18.03
2023-12-03T23:39:02.288Z,17.70
2023-12-03T23:41:31.365Z,22.07
2023-12-03T23:43:59.348Z,19.67
2023-12-03T23:46:26.936Z,18.73
2023-12-03T23:48:55.088Z,19.20
2023-12-03T23:51:22.772Z,19.43
2023-12-03T23:53:50.355Z,19.40
2023-12-03T23:56:22.386Z,20.47
2023-12-03T23:58:51.570Z,17.60
